sensor_id;sensor_type;location;lat;lon;timestamp;pressure;altitude;pressure_sealevel;temperature;humidity
16481;BME280;44634;54.110;12.138;2023-06-10T00:01:11;101571.00;;;16.17;100.00
16481;BME280;44634;54.110;12.138;2023-06-10T00:03:38;101573.03;;;16.58;100.00
16481;BME280;44634;54.110;12.138;2023-06-10T00:06:08;101537.94;;;16.10;100.00
16481;BME280;44634;54.110;12.138;2023-06-10T00:08:35;101528.72;;;16.04;100.00
16481;BME280;44634;54.110;12.138;2023-06-10T00:11:04;101529.03;;;16.01;100.00
16481;BME280;44634;54.110;12.138;2023-06-10T00:13:31;101538.56;;;15.68;100.00
16481;BME280;44634;54.110;12.138;2023-06-10T00:15:59;101540.50;;;16.37;100.00
16481;BME280;44634;54.110;12.138;2023-06-10T00:18:28;101539.94;;;16.08;100.00
16481;BME280;44634;54.110;12.138;2023-06-10T00:20:57;101527.31;;;15.92;100.00
16481;BME280;44634;54.110;12.138;2023-06-10T00:23:30;101552.31;;;16.34;100.00
16481;BME280;44634;54.110;12.138;2023-06-10T00:26:04;101565.09;;;16.23;100.00
16481;BME280;44634;54.110;12.138;2023-06-10T00:28:32;101554.63;;;16.29;100.00
16481;BME280;44634;54.110;12.138;2023-06-10T00:31:00;101565.69;;;16.17;100.00
16481;BME280;44634;54.110;12.138;2023-06-10T00:33:30;101541.78;;;16.07;100.00
16481;BME280;44634;54.110;12.138;2023-06-10T00:35:57;101556.31;;;16.13;100.00
16481;BME280;44634;54.110;12.138;2023-06-10T00:38:25;101549.31;;;16.12;100.00
16481;BME280;44634;54.110;12.138;2023-06-10T00:40:53;101545.31;;;16.59;100.00
16481;BME280;44634;54.110;12.138;2023-06-10T00:43:21;101557.47;;;16.10;100.00
16481;BME280;44634;54.110;12.138;2023-06-10T00:45:49;101557.66;;;16.34;100.00
16481;BME280;44634;54.110;12.138;2023-06-10T00:48:17;101563.69;;;16.19;100.00
16481;BME280;44634;54.110;12.138;2023-06-10T00:50:47;101564.00;;;16.16;100.00
16481;BME280;44634;54.110;12.138;2023-06-10T00:53:16;101570.19;;;15.98;100.00
16481;BME280;44634;54.110;12.138;2023-06-10T00:55:44;101555.84;;;15.99;100.00
16481;BME280;44634;54.110;12.138;2023-06-10T00:58:12;101544.78;;;16.30;100.00
16481;BME280;44634;54.110;12.138;2023-06-10T01:00:40;101550.06;;;16.22;100.00
16481;BME280;44634;54.110;12.138;2023-06-10T01:03:08;101545.03;;;16.01;100.00
16481;BME280;44634;54.110;12.138;2023-06-10T01:05:37;101541.34;;;16.20;100.00
16481;BME280;44634;54.110;12.138;2023-06-10T01:08:13;101549.81;;;16.15;100.00
16481;BME280;44634;54.110;12.138;2023-06-10T01:10:51;101533.66;;;16.17;100.00
16481;BME280;44634;54.110;12.138;2023-06-10T01:13:21;101527.06;;;15.85;100.00
16481;BME280;44634;54.110;12.138;2023-06-10T01:15:51;101522.94;;;16.34;100.00
16481;BME280;44634;54.110;12.138;2023-06-10T01:18:19;101533.59;;;16.26;100.00
16481;BME280;44634;54.110;12.138;2023-06-10T01:20:48;101548.69;;;16.18;100.00
16481;BME280;44634;54.110;12.138;2023-06-10T01:23:18;101534.50;;;16.17;100.00
16481;BME280;44634;54.110;12.138;2023-06-10T01:25:50;101539.13;;;16.33;100.00
16481;BME280;44634;54.110;12.138;2023-06-10T01:28:26;101530.84;;;16.36;100.00
16481;BME280;44634;54.110;12.138;2023-06-10T01:31:00;101541.34;;;16.38;100.00
16481;BME280;44634;54.110;12.138;2023-06-10T01:33:36;101527.00;;;15.95;100.00
16481;BME280;44634;54.110;12.138;2023-06-10T01:36:06;101500.50;;;16.19;100.00
16481;BME280;44634;54.110;12.138;2023-06-10T01:38:40;101509.38;;;16.02;100.00
16481;BME280;44634;54.110;12.138;2023-06-10T01:41:10;101518.84;;;16.40;100.00
16481;BME280;44634;54.110;12.138;2023-06-10T01:43:39;101522.47;;;16.13;100.00
16481;BME280;44634;54.110;12.138;2023-06-10T01:46:07;101534.41;;;16.27;100.00
16481;BME280;44634;54.110;12.138;2023-06-10T01:48:37;101522.84;;;16.00;100.00
16481;BME280;44634;54.110;12.138;2023-06-10T01:51:05;101498.38;;;16.05;100.00
16481;BME280;44634;54.110;12.138;2023-06-10T01:53:33;101496.34;;;15.99;100.00
16481;BME280;44634;54.110;12.138;2023-06-10T01:56:02;101491.53;;;15.85;100.00
16481;BME280;44634;54.110;12.138;2023-06-10T01:58:30;101494.75;;;15.88;100.00
16481;BME280;44634;54.110;12.138;2023-06-10T02:00:58;101474.78;;;15.92;100.00
16481;BME280;44634;54.110;12.138;2023-06-10T02:03:26;101479.25;;;16.10;100.00
16481;BME280;44634;54.110;12.138;2023-06-10T02:05:54;101474.94;;;15.73;100.00
16481;BME280;44634;54.110;12.138;2023-06-10T02:08:22;101482.50;;;15.77;100.00
16481;BME280;44634;54.110;12.138;2023-06-10T02:10:50;101472.50;;;15.80;100.00
16481;BME280;44634;54.110;12.138;2023-06-10T02:13:19;101481.47;;;15.61;100.00
16481;BME280;44634;54.110;12.138;2023-06-10T02:15:46;101488.16;;;16.18;100.00
16481;BME280;44634;54.110;12.138;2023-06-10T02:18:14;101495.69;;;15.79;100.00
16481;BME280;44634;54.110;12.138;2023-06-10T02:20:42;101493.16;;;15.95;100.00
16481;BME280;44634;54.110;12.138;2023-06-10T02:23:10;101487.28;;;15.92;100.00
16481;BME280;44634;54.110;12.138;2023-06-10T02:25:38;101507.94;;;16.08;100.00
16481;BME280;44634;54.110;12.138;2023-06-10T02:28:06;101494.78;;;16.14;100.00
16481;BME280;44634;54.110;12.138;2023-06-10T02:30:39;101486.38;;;15.83;100.00
16481;BME280;44634;54.110;12.138;2023-06-10T02:33:07;101488.88;;;15.85;100.00
16481;BME280;44634;54.110;12.138;2023-06-10T02:35:37;101505.03;;;16.01;100.00
16481;BME280;44634;54.110;12.138;2023-06-10T02:38:05;101484.03;;;16.24;100.00
16481;BME280;44634;54.110;12.138;2023-06-10T02:40:33;101506.13;;;16.16;100.00
16481;BME280;44634;54.110;12.138;2023-06-10T02:43:01;101499.00;;;15.99;100.00
16481;BME280;44634;54.110;12.138;2023-06-10T02:45:29;101499.91;;;15.90;100.00
16481;BME280;44634;54.110;12.138;2023-06-10T02:47:58;101497.41;;;16.06;100.00
16481;BME280;44634;54.110;12.138;2023-06-10T02:50:26;101500.28;;;16.13;100.00
16481;BME280;44634;54.110;12.138;2023-06-10T02:52:54;101496.97;;;16.36;100.00
16481;BME280;44634;54.110;12.138;2023-06-10T02:55:22;101499.63;;;15.93;100.00
16481;BME280;44634;54.110;12.138;2023-06-10T02:57:53;101487.34;;;16.00;100.00
16481;BME280;44634;54.110;12.138;2023-06-10T03:00:21;101501.69;;;15.99;100.00
16481;BME280;44634;54.110;12.138;2023-06-10T03:02:50;101493.66;;;15.99;100.00
16481;BME280;44634;54.110;12.138;2023-06-10T03:05:19;101513.78;;;16.11;100.00
16481;BME280;44634;54.110;12.138;2023-06-10T03:07:48;101509.53;;;15.83;100.00
16481;BME280;44634;54.110;12.138;2023-06-10T03:10:16;101492.00;;;15.98;100.00
16481;BME280;44634;54.110;12.138;2023-06-10T03:12:44;101500.47;;;15.93;100.00
16481;BME280;44634;54.110;12.138;2023-06-10T03:15:12;101499.69;;;16.01;100.00
16481;BME280;44634;54.110;12.138;2023-06-10T03:17:41;101495.28;;;16.10;100.00
16481;BME280;44634;54.110;12.138;2023-06-10T03:20:10;101503.19;;;16.01;100.00
16481;BME280;44634;54.110;12.138;2023-06-10T03:22:39;101525.38;;;15.84;100.00
16481;BME280;44634;54.110;12.138;2023-06-10T03:25:08;101486.97;;;15.95;100.00
16481;BME280;44634;54.110;12.138;2023-06-10T03:27:41;101496.50;;;15.80;100.00
16481;BME280;44634;54.110;12.138;2023-06-10T03:30:09;101498.94;;;16.09;100.00
16481;BME280;44634;54.110;12.138;2023-06-10T03:32:38;101504.44;;;16.07;100.00
16481;BME280;44634;54.110;12.138;2023-06-10T03:35:07;101494.19;;;16.20;100.00
16481;BME280;44634;54.110;12.138;2023-06-10T03:37:36;101507.22;;;16.23;100.00
16481;BME280;44634;54.110;12.138;2023-06-10T03:40:07;101522.84;;;16.18;100.00
16481;BME280;44634;54.110;12.138;2023-06-10T03:42:36;101514.13;;;16.60;100.00
16481;BME280;44634;54.110;12.138;2023-06-10T03:45:04;101506.50;;;16.39;100.00
16481;BME280;44634;54.110;12.138;2023-06-10T03:47:33;101505.75;;;16.55;100.00
16481;BME280;44634;54.110;12.138;2023-06-10T03:50:03;101508.69;;;16.44;100.00
16481;BME280;44634;54.110;12.138;2023-06-10T03:52:31;101503.88;;;16.73;100.00
16481;BME280;44634;54.110;12.138;2023-06-10T03:54:59;101510.16;;;16.64;100.00
16481;BME280;44634;54.110;12.138;2023-06-10T03:57:28;101508.34;;;16.47;100.00
16481;BME280;44634;54.110;12.138;2023-06-10T03:59:56;101525.81;;;16.15;100.00
16481;BME280;44634;54.110;12.138;2023-06-10T04:02:23;101509.22;;;16.73;100.00
16481;BME280;44634;54.110;12.138;2023-06-10T04:04:51;101525.75;;;16.51;100.00
16481;BME280;44634;54.110;12.138;2023-06-10T04:07:19;101519.56;;;16.24;100.00
16481;BME280;44634;54.110;12.138;2023-06-10T04:09:47;101528.13;;;16.54;100.00
16481;BME280;44634;54.110;12.138;2023-06-10T04:12:16;101523.25;;;16.75;100.00
16481;BME280;44634;54.110;12.138;2023-06-10T04:14:45;101536.50;;;16.85;100.00
16481;BME280;44634;54.110;12.138;2023-06-10T04:17:13;101563.59;;;17.24;100.00
16481;BME280;44634;54.110;12.138;2023-06-10T04:19:41;101566.03;;;16.83;100.00
16481;BME280;44634;54.110;12.138;2023-06-10T04:22:09;101568.44;;;17.29;100.00
16481;BME280;44634;54.110;12.138;2023-06-10T04:24:37;101589.94;;;17.19;100.00
16481;BME280;44634;54.110;12.138;2023-06-10T04:27:05;101564.28;;;17.34;100.00
16481;BME280;44634;54.110;12.138;2023-06-10T04:29:33;101553.91;;;17.31;100.00
16481;BME280;44634;54.110;12.138;2023-06-10T04:32:03;101573.56;;;17.14;100.00
16481;BME280;44634;54.110;12.138;2023-06-10T04:34:33;101564.88;;;17.12;100.00
16481;BME280;44634;54.110;12.138;2023-06-10T04:37:01;101561.13;;;16.97;100.00
16481;BME280;44634;54.110;12.138;2023-06-10T04:39:29;101585.00;;;17.74;100.00
16481;BME280;44634;54.110;12.138;2023-06-10T04:41:57;101613.97;;;17.87;100.00
16481;BME280;44634;54.110;12.138;2023-06-10T04:44:24;101598.03;;;17.69;100.00
16481;BME280;44634;54.110;12.138;2023-06-10T04:46:52;101593.06;;;17.82;100.00
16481;BME280;44634;54.110;12.138;2023-06-10T04:49:23;101579.56;;;17.58;100.00
16481;BME280;44634;54.110;12.138;2023-06-10T04:51:50;101604.47;;;17.59;100.00
16481;BME280;44634;54.110;12.138;2023-06-10T04:54:18;101590.31;;;17.66;100.00
16481;BME280;44634;54.110;12.138;2023-06-10T04:56:46;101580.69;;;17.81;100.00
16481;BME280;44634;54.110;12.138;2023-06-10T04:59:14;101591.06;;;17.84;100.00
16481;BME280;44634;54.110;12.138;2023-06-10T05:01:42;101592.97;;;17.66;100.00
16481;BME280;44634;54.110;12.138;2023-06-10T05:04:10;101578.56;;;17.59;100.00
16481;BME280;44634;54.110;12.138;2023-06-10T05:06:39;101584.84;;;17.76;100.00
16481;BME280;44634;54.110;12.138;2023-06-10T05:09:07;101594.78;;;18.40;100.00
16481;BME280;44634;54.110;12.138;2023-06-10T05:11:34;101614.03;;;18.28;100.00
16481;BME280;44634;54.110;12.138;2023-06-10T05:14:02;101609.81;;;18.01;100.00
16481;BME280;44634;54.110;12.138;2023-06-10T05:16:30;101614.53;;;18.39;100.00
16481;BME280;44634;54.110;12.138;2023-06-10T05:18:58;101626.25;;;18.38;100.00
16481;BME280;44634;54.110;12.138;2023-06-10T05:21:26;101634.63;;;18.76;100.00
16481;BME280;44634;54.110;12.138;2023-06-10T05:23:55;101638.63;;;18.39;100.00
16481;BME280;44634;54.110;12.138;2023-06-10T05:26:23;101640.31;;;18.89;100.00
16481;BME280;44634;54.110;12.138;2023-06-10T05:28:51;101635.97;;;18.88;100.00
16481;BME280;44634;54.110;12.138;2023-06-10T05:31:19;101647.84;;;19.02;100.00
16481;BME280;44634;54.110;12.138;2023-06-10T05:33:47;101655.09;;;18.69;100.00
16481;BME280;44634;54.110;12.138;2023-06-10T05:36:15;101636.81;;;18.97;100.00
16481;BME280;44634;54.110;12.138;2023-06-10T05:38:42;101659.25;;;19.51;100.00
16481;BME280;44634;54.110;12.138;2023-06-10T05:41:12;101666.28;;;19.60;100.00
16481;BME280;44634;54.110;12.138;2023-06-10T05:43:39;101677.72;;;19.46;100.00
16481;BME280;44634;54.110;12.138;2023-06-10T05:46:07;101666.66;;;19.57;100.00
16481;BME280;44634;54.110;12.138;2023-06-10T05:48:35;101684.13;;;19.29;100.00
16481;BME280;44634;54.110;12.138;2023-06-10T05:51:03;101663.47;;;19.46;100.00
16481;BME280;44634;54.110;12.138;2023-06-10T05:53:31;101672.25;;;19.23;100.00
16481;BME280;44634;54.110;12.138;2023-06-10T05:55:59;101679.03;;;19.50;100.00
16481;BME280;44634;54.110;12.138;2023-06-10T05:58:28;101671.84;;;19.59;100.00
16481;BME280;44634;54.110;12.138;2023-06-10T06:00:56;101684.16;;;19.84;100.00
16481;BME280;44634;54.110;12.138;2023-06-10T06:03:24;101704.84;;;19.68;100.00
16481;BME280;44634;54.110;12.138;2023-06-10T06:05:52;101683.63;;;19.81;100.00
16481;BME280;44634;54.110;12.138;2023-06-10T06:08:20;101674.34;;;20.00;100.00
16481;BME280;44634;54.110;12.138;2023-06-10T06:10:47;101680.28;;;19.87;100.00
16481;BME280;44634;54.110;12.138;2023-06-10T06:13:15;101671.38;;;20.17;100.00
16481;BME280;44634;54.110;12.138;2023-06-10T06:15:44;101682.13;;;19.86;100.00
16481;BME280;44634;54.110;12.138;2023-06-10T06:18:12;101698.31;;;20.32;100.00
16481;BME280;44634;54.110;12.138;2023-06-10T06:20:40;101712.22;;;20.05;100.00
16481;BME280;44634;54.110;12.138;2023-06-10T06:23:08;101716.22;;;20.09;100.00
16481;BME280;44634;54.110;12.138;2023-06-10T06:25:36;101699.53;;;20.21;100.00
16481;BME280;44634;54.110;12.138;2023-06-10T06:28:05;101722.34;;;20.79;100.00
16481;BME280;44634;54.110;12.138;2023-06-10T06:30:33;101714.59;;;20.31;100.00
16481;BME280;44634;54.110;12.138;2023-06-10T06:33:02;101736.09;;;20.85;100.00
16481;BME280;44634;54.110;12.138;2023-06-10T06:35:31;101736.13;;;20.54;100.00
16481;BME280;44634;54.110;12.138;2023-06-10T06:37:59;101737.50;;;20.49;100.00
16481;BME280;44634;54.110;12.138;2023-06-10T06:40:27;101740.88;;;20.74;100.00
16481;BME280;44634;54.110;12.138;2023-06-10T06:42:54;101742.53;;;20.98;100.00
16481;BME280;44634;54.110;12.138;2023-06-10T06:45:22;101763.13;;;21.29;100.00
16481;BME280;44634;54.110;12.138;2023-06-10T06:47:50;101769.38;;;21.21;100.00
16481;BME280;44634;54.110;12.138;2023-06-10T06:50:19;101764.19;;;21.20;100.00
16481;BME280;44634;54.110;12.138;2023-06-10T06:52:47;101752.09;;;21.01;100.00
16481;BME280;44634;54.110;12.138;2023-06-10T06:55:15;101766.66;;;21.29;100.00
16481;BME280;44634;54.110;12.138;2023-06-10T06:57:43;101755.97;;;21.36;100.00
16481;BME280;44634;54.110;12.138;2023-06-10T07:00:11;101781.69;;;21.53;100.00
16481;BME280;44634;54.110;12.138;2023-06-10T07:02:39;101781.81;;;21.60;100.00
16481;BME280;44634;54.110;12.138;2023-06-10T07:05:08;101791.38;;;21.25;100.00
16481;BME280;44634;54.110;12.138;2023-06-10T07:07:37;101789.75;;;21.38;100.00
16481;BME280;44634;54.110;12.138;2023-06-10T07:10:06;101792.03;;;21.64;100.00
16481;BME280;44634;54.110;12.138;2023-06-10T07:12:34;101789.25;;;21.73;100.00
16481;BME280;44634;54.110;12.138;2023-06-10T07:15:02;101806.13;;;21.81;100.00
16481;BME280;44634;54.110;12.138;2023-06-10T07:17:30;101814.53;;;22.16;100.00
16481;BME280;44634;54.110;12.138;2023-06-10T07:19:58;101801.06;;;21.86;100.00
16481;BME280;44634;54.110;12.138;2023-06-10T07:22:26;101807.91;;;22.04;100.00
16481;BME280;44634;54.110;12.138;2023-06-10T07:24:55;101815.31;;;22.46;100.00
16481;BME280;44634;54.110;12.138;2023-06-10T07:27:23;101838.28;;;22.78;100.00
16481;BME280;44634;54.110;12.138;2023-06-10T07:29:51;101835.13;;;23.10;100.00
16481;BME280;44634;54.110;12.138;2023-06-10T07:32:19;101835.69;;;23.06;100.00
16481;BME280;44634;54.110;12.138;2023-06-10T07:34:48;101828.63;;;22.69;100.00
16481;BME280;44634;54.110;12.138;2023-06-10T07:37:16;101838.44;;;23.12;100.00
16481;BME280;44634;54.110;12.138;2023-06-10T07:39:46;101844.50;;;22.93;100.00
16481;BME280;44634;54.110;12.138;2023-06-10T07:42:15;101852.00;;;23.19;100.00
16481;BME280;44634;54.110;12.138;2023-06-10T07:44:43;101848.00;;;23.58;100.00
16481;BME280;44634;54.110;12.138;2023-06-10T07:47:10;101857.19;;;23.63;100.00
16481;BME280;44634;54.110;12.138;2023-06-10T07:49:38;101853.44;;;23.92;100.00
16481;BME280;44634;54.110;12.138;2023-06-10T07:52:08;101853.91;;;23.47;100.00
16481;BME280;44634;54.110;12.138;2023-06-10T07:54:36;101858.69;;;24.00;100.00
16481;BME280;44634;54.110;12.138;2023-06-10T07:57:04;101864.91;;;24.01;100.00
16481;BME280;44634;54.110;12.138;2023-06-10T07:59:34;101864.19;;;24.55;100.00
16481;BME280;44634;54.110;12.138;2023-06-10T08:02:02;101872.03;;;24.02;100.00
16481;BME280;44634;54.110;12.138;2023-06-10T08:04:30;101877.72;;;24.55;100.00
16481;BME280;44634;54.110;12.138;2023-06-10T08:06:58;101866.88;;;24.48;100.00
16481;BME280;44634;54.110;12.138;2023-06-10T08:09:26;101871.13;;;24.29;100.00
16481;BME280;44634;54.110;12.138;2023-06-10T08:11:55;101889.34;;;24.55;100.00
16481;BME280;44634;54.110;12.138;2023-06-10T08:14:23;101878.19;;;24.72;100.00
16481;BME280;44634;54.110;12.138;2023-06-10T08:16:52;101886.63;;;24.14;100.00
16481;BME280;44634;54.110;12.138;2023-06-10T08:19:20;101873.31;;;23.78;100.00
16481;BME280;44634;54.110;12.138;2023-06-10T08:21:48;101870.00;;;23.83;100.00
16481;BME280;44634;54.110;12.138;2023-06-10T08:24:15;101886.22;;;24.45;100.00
16481;BME280;44634;54.110;12.138;2023-06-10T08:26:45;101889.50;;;24.88;100.00
16481;BME280;44634;54.110;12.138;2023-06-10T08:29:13;101889.63;;;25.48;100.00
16481;BME280;44634;54.110;12.138;2023-06-10T08:31:41;101894.59;;;25.38;100.00
16481;BME280;44634;54.110;12.138;2023-06-10T08:34:11;101901.06;;;25.37;100.00
16481;BME280;44634;54.110;12.138;2023-06-10T08:36:39;101904.81;;;25.36;100.00
16481;BME280;44634;54.110;12.138;2023-06-10T08:39:06;101907.31;;;25.44;100.00
16481;BME280;44634;54.110;12.138;2023-06-10T08:41:37;101911.69;;;25.51;100.00
16481;BME280;44634;54.110;12.138;2023-06-10T08:44:12;101912.53;;;25.98;100.00
16481;BME280;44634;54.110;12.138;2023-06-10T08:46:45;101907.16;;;25.78;100.00
16481;BME280;44634;54.110;12.138;2023-06-10T08:49:18;101913.59;;;25.91;100.00
16481;BME280;44634;54.110;12.138;2023-06-10T08:51:50;101913.19;;;25.94;100.00
16481;BME280;44634;54.110;12.138;2023-06-10T08:54:21;101908.78;;;25.73;100.00
16481;BME280;44634;54.110;12.138;2023-06-10T08:56:54;101920.69;;;25.92;100.00
16481;BME280;44634;54.110;12.138;2023-06-10T08:59:23;101905.66;;;26.09;100.00
16481;BME280;44634;54.110;12.138;2023-06-10T09:01:53;101915.47;;;25.84;100.00
16481;BME280;44634;54.110;12.138;2023-06-10T09:04:24;101915.16;;;26.45;100.00
16481;BME280;44634;54.110;12.138;2023-06-10T09:06:52;101913.75;;;26.22;100.00
16481;BME280;44634;54.110;12.138;2023-06-10T09:09:22;101913.09;;;26.33;100.00
16481;BME280;44634;54.110;12.138;2023-06-10T09:11:50;101913.91;;;26.47;100.00
16481;BME280;44634;54.110;12.138;2023-06-10T09:14:18;101920.06;;;25.90;100.00
16481;BME280;44634;54.110;12.138;2023-06-10T09:16:46;101917.09;;;25.38;100.00
16481;BME280;44634;54.110;12.138;2023-06-10T09:19:16;101918.34;;;26.15;100.00
16481;BME280;44634;54.110;12.138;2023-06-10T09:21:46;101911.41;;;26.52;100.00
16481;BME280;44634;54.110;12.138;2023-06-10T09:24:14;101912.19;;;26.59;100.00
16481;BME280;44634;54.110;12.138;2023-06-10T09:26:43;101913.72;;;26.87;100.00
16481;BME280;44634;54.110;12.138;2023-06-10T09:29:12;101919.63;;;27.47;100.00
16481;BME280;44634;54.110;12.138;2023-06-10T09:31:40;101920.69;;;27.21;100.00
16481;BME280;44634;54.110;12.138;2023-06-10T09:34:08;101916.31;;;27.20;100.00
16481;BME280;44634;54.110;12.138;2023-06-10T09:36:38;101911.41;;;27.35;100.00
16481;BME280;44634;54.110;12.138;2023-06-10T09:39:13;101914.53;;;27.32;100.00
16481;BME280;44634;54.110;12.138;2023-06-10T09:41:41;101917.75;;;27.47;99.33
16481;BME280;44634;54.110;12.138;2023-06-10T09:44:12;101911.16;;;27.68;95.18
16481;BME280;44634;54.110;12.138;2023-06-10T09:46:41;101924.03;;;27.48;95.31
16481;BME280;44634;54.110;12.138;2023-06-10T09:49:09;101917.88;;;27.34;99.06
16481;BME280;44634;54.110;12.138;2023-06-10T09:51:37;101924.56;;;27.63;95.98
16481;BME280;44634;54.110;12.138;2023-06-10T09:54:05;101913.38;;;27.78;97.26
16481;BME280;44634;54.110;12.138;2023-06-10T09:56:35;101919.38;;;27.55;94.62
16481;BME280;44634;54.110;12.138;2023-06-10T09:59:04;101920.91;;;27.76;92.55
16481;BME280;44634;54.110;12.138;2023-06-10T10:01:32;101922.22;;;27.92;92.11
16481;BME280;44634;54.110;12.138;2023-06-10T10:04:00;101922.66;;;27.89;90.73
16481;BME280;44634;54.110;12.138;2023-06-10T10:06:29;101918.38;;;27.81;89.74
16481;BME280;44634;54.110;12.138;2023-06-10T10:08:57;101928.91;;;27.39;90.23
16481;BME280;44634;54.110;12.138;2023-06-10T10:11:26;101929.84;;;27.83;88.40
16481;BME280;44634;54.110;12.138;2023-06-10T10:13:56;101929.47;;;28.41;86.21
16481;BME280;44634;54.110;12.138;2023-06-10T10:16:30;101924.31;;;28.69;87.18
16481;BME280;44634;54.110;12.138;2023-06-10T10:19:05;101917.25;;;29.82;77.54
16481;BME280;44634;54.110;12.138;2023-06-10T10:21:38;101919.44;;;29.50;77.51
16481;BME280;44634;54.110;12.138;2023-06-10T10:24:13;101923.13;;;29.79;75.48
16481;BME280;44634;54.110;12.138;2023-06-10T10:26:46;101921.56;;;29.48;79.21
16481;BME280;44634;54.110;12.138;2023-06-10T10:29:24;101931.72;;;28.99;78.44
16481;BME280;44634;54.110;12.138;2023-06-10T10:31:58;101920.06;;;29.99;68.91
16481;BME280;44634;54.110;12.138;2023-06-10T10:34:32;101922.81;;;29.99;67.65
16481;BME280;44634;54.110;12.138;2023-06-10T10:37:03;101919.72;;;30.18;72.51
16481;BME280;44634;54.110;12.138;2023-06-10T10:39:33;101910.53;;;30.88;64.83
16481;BME280;44634;54.110;12.138;2023-06-10T10:42:02;101912.88;;;30.68;65.95
16481;BME280;44634;54.110;12.138;2023-06-10T10:44:32;101903.94;;;31.46;59.80
16481;BME280;44634;54.110;12.138;2023-06-10T10:47:03;101907.13;;;30.81;61.42
16481;BME280;44634;54.110;12.138;2023-06-10T10:49:32;101905.06;;;31.17;56.74
16481;BME280;44634;54.110;12.138;2023-06-10T10:52:02;101898.22;;;31.31;57.14
16481;BME280;44634;54.110;12.138;2023-06-10T10:54:32;101898.31;;;31.86;54.61
16481;BME280;44634;54.110;12.138;2023-06-10T10:57:11;101890.03;;;31.81;57.11
16481;BME280;44634;54.110;12.138;2023-06-10T11:00:01;101890.63;;;31.04;57.72
16481;BME280;44634;54.110;12.138;2023-06-10T11:02:40;101891.59;;;31.60;54.71
16481;BME280;44634;54.110;12.138;2023-06-10T11:05:11;101889.53;;;30.48;56.60
16481;BME280;44634;54.110;12.138;2023-06-10T11:07:40;101892.84;;;31.07;56.00
16481;BME280;44634;54.110;12.138;2023-06-10T11:10:09;101884.31;;;31.32;55.10
16481;BME280;44634;54.110;12.138;2023-06-10T11:12:51;101891.03;;;31.25;54.21
16481;BME280;44634;54.110;12.138;2023-06-10T11:15:23;101892.88;;;30.79;54.74
16481;BME280;44634;54.110;12.138;2023-06-10T11:18:10;101907.16;;;30.17;58.87
16481;BME280;44634;54.110;12.138;2023-06-10T11:20:52;101899.00;;;31.15;55.62
16481;BME280;44634;54.110;12.138;2023-06-10T11:23:41;101904.00;;;30.89;53.68
16481;BME280;44634;54.110;12.138;2023-06-10T11:26:31;101900.81;;;31.09;52.65
16481;BME280;44634;54.110;12.138;2023-06-10T11:29:05;101896.25;;;31.60;49.65
16481;BME280;44634;54.110;12.138;2023-06-10T11:31:49;101893.75;;;31.25;55.14
16481;BME280;44634;54.110;12.138;2023-06-10T11:34:24;101894.16;;;31.67;52.19
16481;BME280;44634;54.110;12.138;2023-06-10T11:36:53;101892.13;;;31.74;49.81
16481;BME280;44634;54.110;12.138;2023-06-10T11:39:21;101899.81;;;31.60;53.02
16481;BME280;44634;54.110;12.138;2023-06-10T11:41:53;101900.78;;;31.71;50.06
16481;BME280;44634;54.110;12.138;2023-06-10T11:44:21;101889.00;;;32.04;49.43
16481;BME280;44634;54.110;12.138;2023-06-10T11:46:51;101897.31;;;31.25;54.87
16481;BME280;44634;54.110;12.138;2023-06-10T11:49:20;101891.59;;;31.44;52.52
16481;BME280;44634;54.110;12.138;2023-06-10T11:51:48;101887.34;;;32.03;52.75
16481;BME280;44634;54.110;12.138;2023-06-10T11:54:18;101895.94;;;31.40;51.71
16481;BME280;44634;54.110;12.138;2023-06-10T11:56:46;101897.06;;;31.60;51.63
16481;BME280;44634;54.110;12.138;2023-06-10T11:59:15;101891.50;;;32.71;48.16
16481;BME280;44634;54.110;12.138;2023-06-10T12:01:44;101895.19;;;32.82;48.33
16481;BME280;44634;54.110;12.138;2023-06-10T12:04:15;101889.97;;;32.59;48.08
16481;BME280;44634;54.110;12.138;2023-06-10T12:06:46;101892.81;;;32.42;48.05
16481;BME280;44634;54.110;12.138;2023-06-10T12:09:15;101890.47;;;32.12;49.95
16481;BME280;44634;54.110;12.138;2023-06-10T12:11:53;101892.50;;;31.66;51.22
16481;BME280;44634;54.110;12.138;2023-06-10T12:14:50;101888.78;;;31.89;51.73
16481;BME280;44634;54.110;12.138;2023-06-10T12:17:19;101891.72;;;32.43;49.17
16481;BME280;44634;54.110;12.138;2023-06-10T12:19:50;101893.38;;;32.44;46.14
16481;BME280;44634;54.110;12.138;2023-06-10T12:22:18;101885.28;;;33.03;43.25
16481;BME280;44634;54.110;12.138;2023-06-10T12:24:57;101896.31;;;32.20;45.32
16481;BME280;44634;54.110;12.138;2023-06-10T12:27:27;101897.94;;;32.60;45.65
16481;BME280;44634;54.110;12.138;2023-06-10T12:29:57;101889.97;;;32.37;46.06
16481;BME280;44634;54.110;12.138;2023-06-10T12:32:38;101888.88;;;31.44;50.07
16481;BME280;44634;54.110;12.138;2023-06-10T12:35:10;101899.88;;;31.82;48.84
16481;BME280;44634;54.110;12.138;2023-06-10T12:37:39;101900.19;;;32.24;45.60
16481;BME280;44634;54.110;12.138;2023-06-10T12:40:10;101906.84;;;31.90;45.95
16481;BME280;44634;54.110;12.138;2023-06-10T12:42:38;101886.94;;;31.94;45.79
16481;BME280;44634;54.110;12.138;2023-06-10T12:45:07;101897.22;;;31.37;47.19